createdAt,value
2018-08-30T00:02:55.378Z,35.37
2018-08-30T00:07:59.063Z,31.20
2018-08-30T00:13:02.557Z,37.70
2018-08-30T00:18:05.909Z,41.77
2018-08-30T00:23:09.368Z,30.17
2018-08-30T00:28:12.417Z,35.53
2018-08-30T00:33:16.051Z,46.10
2018-08-30T00:38:19.191Z,26.00
2018-08-30T00:43:22.629Z,28.90
2018-08-30T00:48:26.262Z,25.53
2018-08-30T00:53:29.603Z,32.43
2018-08-30T00:58:32.931Z,25.10
2018-08-30T01:03:36.384Z,21.00
2018-08-30T01:08:39.598Z,30.63
2018-08-30T01:13:43.099Z,25.00
2018-08-30T01:18:46.570Z,32.13
2018-08-30T01:23:49.908Z,21.83
2018-08-30T01:28:53.151Z,29.50
2018-08-30T01:33:56.097Z,29.93
2018-08-30T01:38:59.613Z,27.67
2018-08-30T01:44:03.486Z,25.37
2018-08-30T01:49:06.592Z,24.90
2018-08-30T01:54:10.040Z,36.60
2018-08-30T01:59:13.075Z,27.80
2018-08-30T02:04:16.316Z,31.93
2018-08-30T02:09:19.840Z,30.80
2018-08-30T02:14:23.660Z,36.43
2018-08-30T02:19:27.454Z,41.93
2018-08-30T02:24:31.010Z,42.17
2018-08-30T02:29:34.156Z,32.73
2018-08-30T02:34:37.364Z,30.57
2018-08-30T02:39:40.686Z,35.07
2018-08-30T02:44:43.854Z,23.97
2018-08-30T02:49:47.969Z,26.10
2018-08-30T02:54:51.532Z,25.40
2018-08-30T02:59:54.792Z,28.70
2018-08-30T03:04:58.116Z,36.50
2018-08-30T03:10:01.172Z,31.60
2018-08-30T03:15:09.207Z,28.77
2018-08-30T03:20:13.770Z,34.77
2018-08-30T03:25:16.778Z,31.10
2018-08-30T03:30:19.974Z,38.63
2018-08-30T03:35:23.233Z,41.17
2018-08-30T03:40:26.382Z,39.80
2018-08-30T03:45:29.822Z,47.07
2018-08-30T03:50:33.504Z,44.13
2018-08-30T03:55:36.538Z,54.37
2018-08-30T04:00:39.879Z,48.70
2018-08-30T04:05:43.112Z,45.70
2018-08-30T04:10:46.090Z,63.40
2018-08-30T04:15:49.712Z,51.23
2018-08-30T04:20:52.703Z,65.60
2018-08-30T04:25:55.681Z,58.57
2018-08-30T04:30:59.063Z,68.30
2018-08-30T04:36:02.187Z,54.70
2018-08-30T04:41:05.451Z,69.10
2018-08-30T04:46:08.984Z,61.77
2018-08-30T04:51:12.079Z,77.90
2018-08-30T04:56:16.531Z,82.90
2018-08-30T05:01:19.570Z,85.73
2018-08-30T05:06:22.682Z,79.40
2018-08-30T05:11:25.684Z,97.77
2018-08-30T05:16:28.901Z,93.77
2018-08-30T05:21:31.804Z,118.53
2018-08-30T05:26:35.109Z,103.57
2018-08-30T05:31:38.147Z,115.10
2018-08-30T05:36:41.123Z,117.43
2018-08-30T05:41:44.154Z,103.27
2018-08-30T05:46:47.266Z,113.37
2018-08-30T05:51:50.330Z,109.60
2018-08-30T05:56:54.100Z,102.80
2018-08-30T06:01:57.136Z,119.93
2018-08-30T06:07:00.075Z,105.47
2018-08-30T06:12:03.055Z,114.27
2018-08-30T06:17:06.119Z,94.33
2018-08-30T06:22:09.068Z,100.97
2018-08-30T06:27:12.287Z,100.90
2018-08-30T06:32:15.305Z,102.23
2018-08-30T06:37:19.334Z,63.07
2018-08-30T06:42:22.306Z,88.00
2018-08-30T06:47:26.518Z,72.70
2018-08-30T06:52:29.487Z,93.77
2018-08-30T06:57:32.852Z,83.77
2018-08-30T07:02:36.222Z,94.27
2018-08-30T07:07:42.417Z,75.17
2018-08-30T07:12:49.293Z,80.57
2018-08-30T07:17:53.366Z,83.07
2018-08-30T07:22:56.327Z,91.80
2018-08-30T07:27:59.346Z,77.33
2018-08-30T07:33:03.019Z,51.33
2018-08-30T07:39:25.632Z,84.73
2018-08-30T07:44:29.096Z,93.57
2018-08-30T07:49:33.285Z,83.10
2018-08-30T07:54:36.886Z,92.30
2018-08-30T07:59:40.909Z,88.07
2018-08-30T08:04:44.353Z,84.07
2018-08-30T08:09:47.789Z,77.47
2018-08-30T08:14:51.401Z,66.23
2018-08-30T08:19:54.944Z,70.80
2018-08-30T08:24:58.308Z,62.37
2018-08-30T08:30:06.365Z,77.57
2018-08-30T08:35:10.031Z,70.70
2018-08-30T08:40:13.825Z,76.53
2018-08-30T08:45:17.609Z,68.70
2018-08-30T08:50:21.194Z,77.63
2018-08-30T08:55:24.538Z,76.80
2018-08-30T09:00:27.871Z,85.53
2018-08-30T09:05:31.237Z,72.80
2018-08-30T09:10:34.647Z,74.47
2018-08-30T09:15:38.252Z,68.63
2018-08-30T09:20:41.921Z,51.63
2018-08-30T09:25:45.269Z,48.20
2018-08-30T09:30:48.608Z,56.93
2018-08-30T09:35:51.958Z,63.97
2018-08-30T09:40:55.389Z,61.33
2018-08-30T09:45:58.758Z,58.97
2018-08-30T09:51:02.668Z,58.00
2018-08-30T09:56:06.565Z,40.67
2018-08-30T10:01:15.457Z,42.70
2018-08-30T10:06:18.870Z,48.47
2018-08-30T10:11:22.253Z,48.13
2018-08-30T10:16:25.656Z,42.37
2018-08-30T10:21:29.940Z,34.87
2018-08-30T10:26:33.316Z,39.63
2018-08-30T10:31:36.854Z,32.73
2018-08-30T10:36:40.212Z,29.33
2018-08-30T10:41:43.589Z,29.23
2018-08-30T10:46:46.941Z,36.33
2018-08-30T10:51:51.073Z,36.03
2018-08-30T10:56:54.420Z,37.00
2018-08-30T11:01:57.997Z,44.23
2018-08-30T11:07:01.507Z,48.47
2018-08-30T11:12:04.914Z,51.00
2018-08-30T11:17:08.258Z,39.43
2018-08-30T11:22:11.708Z,40.47
2018-08-30T11:27:15.048Z,42.27
2018-08-30T11:32:18.480Z,53.97
2018-08-30T11:37:21.857Z,57.33
2018-08-30T11:42:25.261Z,73.63
2018-08-30T11:47:28.602Z,71.97
2018-08-30T11:52:32.579Z,75.60
2018-08-30T11:57:36.256Z,83.93
2018-08-30T12:02:39.736Z,89.70
2018-08-30T12:07:43.730Z,87.90
2018-08-30T12:12:47.244Z,77.40
2018-08-30T12:17:50.649Z,83.77
2018-08-30T12:22:54.186Z,66.77
2018-08-30T12:27:57.823Z,63.97
2018-08-30T12:33:01.182Z,67.97
2018-08-30T12:38:04.857Z,79.77
2018-08-30T12:43:15.073Z,73.53
2018-08-30T12:48:19.219Z,49.33
2018-08-30T12:53:23.165Z,48.80
2018-08-30T12:58:26.878Z,47.53
2018-08-30T13:03:33.448Z,37.33
2018-08-30T13:08:37.242Z,34.47
2018-08-30T13:13:40.570Z,37.43
2018-08-30T13:18:44.053Z,24.27
2018-08-30T13:23:47.945Z,41.53
2018-08-30T13:28:51.333Z,26.93
2018-08-30T13:33:55.119Z,26.50
2018-08-30T13:38:58.992Z,37.40
2018-08-30T13:44:02.244Z,33.23
2018-08-30T13:49:05.857Z,37.30
2018-08-30T13:54:14.129Z,27.77
2018-08-30T13:59:21.996Z,27.83
2018-08-30T14:04:26.379Z,28.33
2018-08-30T14:09:29.819Z,17.60
2018-08-30T14:14:33.262Z,27.73
2018-08-30T14:19:38.450Z,29.87
2018-08-30T14:24:44.898Z,32.50
2018-08-30T14:29:48.978Z,17.80
2018-08-30T14:34:52.480Z,24.70
2018-08-30T14:39:56.324Z,20.30
2018-08-30T14:44:59.780Z,17.07
2018-08-30T14:50:03.198Z,14.00
2018-08-30T14:55:07.671Z,9.83
2018-08-30T15:00:11.245Z,16.83
2018-08-30T15:05:14.812Z,27.03
2018-08-30T15:10:18.654Z,12.50
2018-08-30T15:15:22.248Z,14.00
2018-08-30T15:20:25.663Z,12.73
2018-08-30T15:25:29.532Z,12.63
2018-08-30T15:30:33.055Z,12.77
2018-08-30T15:35:36.586Z,13.73
2018-08-30T15:40:40.471Z,15.00
2018-08-30T15:45:44.883Z,19.13
2018-08-30T15:50:48.816Z,16.83
2018-08-30T15:55:52.677Z,16.40
2018-08-30T16:00:56.289Z,14.13
2018-08-30T16:05:59.848Z,15.47
2018-08-30T16:11:03.767Z,17.73
2018-08-30T16:16:07.865Z,17.50
2018-08-30T16:21:11.640Z,16.93
2018-08-30T16:26:15.534Z,21.87
2018-08-30T16:31:19.285Z,17.67
2018-08-30T16:36:22.829Z,19.87
2018-08-30T16:41:26.667Z,15.47
2018-08-30T16:46:30.672Z,20.50
2018-08-30T16:51:34.377Z,12.70
2018-08-30T16:56:38.015Z,21.47
2018-08-30T17:01:41.746Z,26.53
2018-08-30T17:06:45.923Z,24.87
2018-08-30T17:11:49.801Z,13.93
2018-08-30T17:16:53.741Z,23.17
2018-08-30T17:21:57.545Z,15.00
2018-08-30T17:27:01.707Z,12.40
2018-08-30T17:32:05.740Z,20.80
2018-08-30T17:37:09.511Z,14.07
2018-08-30T17:42:13.421Z,16.13
2018-08-30T17:47:17.327Z,19.90
2018-08-30T17:52:22.436Z,41.13
2018-08-30T17:57:26.652Z,13.77
2018-08-30T18:02:31.995Z,25.87
2018-08-30T18:07:36.173Z,20.50
2018-08-30T18:12:40.165Z,23.50
2018-08-30T18:17:44.499Z,15.77
2018-08-30T18:22:48.229Z,26.67
2018-08-30T18:27:52.305Z,21.33
2018-08-30T18:32:55.972Z,24.23
2018-08-30T18:37:59.638Z,18.23
2018-08-30T18:43:03.485Z,17.60
2018-08-30T18:48:07.184Z,6.87
2018-08-30T18:53:11.206Z,12.23
2018-08-30T18:58:15.523Z,19.93
2018-08-30T19:03:22.523Z,24.60
2018-08-30T19:08:26.496Z,16.17
2018-08-30T19:13:30.889Z,21.70
2018-08-30T19:18:39.939Z,20.43
2018-08-30T19:23:43.584Z,16.07
2018-08-30T19:28:48.073Z,20.20
2018-08-30T19:33:52.015Z,22.83
2018-08-30T19:38:55.865Z,20.77
2018-08-30T19:44:07.496Z,34.50
2018-08-30T19:49:11.150Z,12.73
2018-08-30T19:54:15.143Z,19.07
2018-08-30T19:59:19.785Z,28.63
2018-08-30T20:04:23.507Z,24.73
2018-08-30T20:09:27.408Z,11.43
2018-08-30T20:14:31.521Z,15.70
2018-08-30T20:19:35.909Z,16.17
2018-08-30T20:24:39.398Z,23.00
2018-08-30T20:29:43.501Z,34.57
2018-08-30T20:34:47.016Z,17.07
2018-08-30T20:39:50.547Z,12.90
2018-08-30T20:44:54.131Z,16.53
2018-08-30T20:49:57.835Z,13.43
2018-08-30T20:55:01.573Z,28.20
2018-08-30T21:00:05.675Z,22.33
2018-08-30T21:05:09.290Z,19.77
2018-08-30T21:10:12.822Z,19.17
2018-08-30T21:15:16.156Z,13.10
2018-08-30T21:20:19.612Z,14.73
2018-08-30T21:25:23.021Z,29.73
2018-08-30T21:30:26.719Z,21.37
2018-08-30T21:35:30.884Z,24.00
2018-08-30T21:40:34.347Z,19.23
2018-08-30T21:45:37.836Z,17.53
2018-08-30T21:50:41.300Z,17.00
2018-08-30T21:55:44.854Z,32.83
2018-08-30T22:00:48.409Z,19.77
2018-08-30T22:05:52.120Z,21.20
2018-08-30T22:10:55.795Z,19.83
2018-08-30T22:15:59.556Z,18.43
2018-08-30T22:21:02.960Z,18.87
2018-08-30T22:26:06.675Z,17.50
2018-08-30T22:31:10.320Z,25.90
2018-08-30T22:36:13.764Z,12.00
2018-08-30T22:41:17.367Z,23.37
2018-08-30T22:46:20.837Z,24.00
2018-08-30T22:51:24.164Z,21.20
2018-08-30T22:56:27.474Z,38.57
2018-08-30T23:01:31.217Z,19.10
2018-08-30T23:06:34.867Z,22.33
2018-08-30T23:11:38.880Z,25.47
2018-08-30T23:16:42.877Z,30.80
2018-08-30T23:21:46.617Z,23.97
2018-08-30T23:26:50.259Z,42.80
2018-08-30T23:31:53.951Z,16.93
2018-08-30T23:36:57.399Z,15.50
2018-08-30T23:42:01.680Z,17.20
2018-08-30T23:47:05.300Z,22.37
2018-08-30T23:52:08.920Z,11.97
2018-08-30T23:57:12.473Z,16.90
